createdAt,value
2019-05-22T00:01:19.100Z,0.00
2019-05-22T00:04:19.120Z,0.00
2019-05-22T00:07:19.034Z,0.00
2019-05-22T00:10:19.045Z,0.00
2019-05-22T00:13:18.970Z,0.00
2019-05-22T00:16:18.968Z,0.00
2019-05-22T00:19:18.931Z,0.00
2019-05-22T00:22:18.872Z,0.00
2019-05-22T00:25:18.861Z,0.00
2019-05-22T00:28:18.809Z,0.00
2019-05-22T00:31:18.820Z,0.00
2019-05-22T00:34:18.746Z,0.00
2019-05-22T00:37:18.738Z,0.00
2019-05-22T00:40:18.678Z,0.00
2019-05-22T00:43:18.694Z,0.00
2019-05-22T00:46:18.631Z,0.00
2019-05-22T00:49:18.582Z,0.00
2019-05-22T00:52:18.568Z,0.00
2019-05-22T00:55:18.535Z,0.00
2019-05-22T00:58:18.523Z,0.00
2019-05-22T01:01:18.468Z,0.00
2019-05-22T01:04:18.476Z,0.00
2019-05-22T01:07:18.403Z,0.00
2019-05-22T01:10:18.407Z,0.00
2019-05-22T01:13:18.358Z,0.00
2019-05-22T01:16:18.295Z,0.00
2019-05-22T01:19:18.292Z,0.00
2019-05-22T01:22:18.233Z,0.00
2019-05-22T01:25:18.227Z,0.00
2019-05-22T01:28:18.163Z,0.00
2019-05-22T01:31:18.165Z,0.00
2019-05-22T01:34:18.138Z,0.00
2019-05-22T01:37:18.110Z,0.00
2019-05-22T01:40:18.038Z,0.00
2019-05-22T01:43:18.032Z,0.00
2019-05-22T01:46:17.993Z,0.00
2019-05-22T01:49:17.964Z,0.00
2019-05-22T01:52:17.909Z,0.00
2019-05-22T01:55:17.894Z,0.00
2019-05-22T01:58:17.884Z,0.00
2019-05-22T02:01:17.839Z,0.00
2019-05-22T02:04:17.772Z,0.00
2019-05-22T02:07:17.749Z,0.00
2019-05-22T02:10:17.734Z,0.00
2019-05-22T02:13:17.672Z,0.00
2019-05-22T02:16:17.666Z,0.00
2019-05-22T02:19:17.609Z,0.00
2019-05-22T02:22:17.606Z,0.00
2019-05-22T02:25:17.544Z,0.00
2019-05-22T02:28:17.539Z,0.00
2019-05-22T02:31:24.536Z,0.00
2019-05-22T02:34:24.492Z,0.00
2019-05-22T02:37:17.444Z,0.00
2019-05-22T02:40:24.514Z,0.00
2019-05-22T02:43:17.377Z,0.00
2019-05-22T02:46:17.318Z,0.00
2019-05-22T02:49:17.309Z,0.00
2019-05-22T02:52:17.253Z,0.00
2019-05-22T02:55:17.258Z,0.00
2019-05-22T02:58:17.223Z,0.00
2019-05-22T03:01:17.160Z,0.00
2019-05-22T03:04:17.150Z,0.00
2019-05-22T03:07:17.094Z,0.00
2019-05-22T03:10:17.095Z,0.00
2019-05-22T03:13:17.056Z,0.00
2019-05-22T03:16:16.994Z,0.00
2019-05-22T03:19:16.999Z,0.00
2019-05-22T03:22:16.932Z,0.00
2019-05-22T03:25:16.924Z,0.00
2019-05-22T03:28:16.891Z,0.00
2019-05-22T03:31:16.843Z,0.00
2019-05-22T03:34:16.847Z,0.00
2019-05-22T03:37:16.779Z,0.00
2019-05-22T03:40:16.771Z,0.00
2019-05-22T03:43:16.720Z,0.00
2019-05-22T03:46:16.695Z,0.00
2019-05-22T03:49:29.342Z,0.00
2019-05-22T03:52:17.640Z,0.00
2019-05-22T03:55:16.585Z,0.00
2019-05-22T03:58:16.577Z,0.00
2019-05-22T04:01:16.514Z,5.62
2019-05-22T04:04:16.516Z,5.62
2019-05-22T04:07:16.457Z,11.25
2019-05-22T04:10:16.439Z,16.88
2019-05-22T04:13:16.478Z,16.88
2019-05-22T04:16:16.375Z,16.88
2019-05-22T04:19:16.339Z,11.25
2019-05-22T04:22:16.321Z,11.25
2019-05-22T04:25:16.250Z,16.88
2019-05-22T04:28:16.246Z,16.88
2019-05-22T04:31:16.214Z,16.88
2019-05-22T04:34:16.156Z,16.88
2019-05-22T04:37:16.152Z,22.50
2019-05-22T04:40:16.088Z,16.88
2019-05-22T04:43:20.135Z,22.50
2019-05-22T04:46:16.053Z,22.50
2019-05-22T04:49:15.996Z,28.12
2019-05-22T04:52:15.987Z,28.12
2019-05-22T04:55:15.928Z,33.75
2019-05-22T04:58:15.922Z,33.75
2019-05-22T05:01:15.864Z,33.75
2019-05-22T05:04:15.855Z,33.75
2019-05-22T05:07:15.837Z,28.12
2019-05-22T05:10:15.798Z,28.12
2019-05-22T05:13:15.745Z,22.50
2019-05-22T05:16:15.701Z,28.12
2019-05-22T05:19:15.690Z,39.38
2019-05-22T05:22:15.635Z,39.38
2019-05-22T05:25:15.640Z,45.00
2019-05-22T05:28:15.574Z,45.00
2019-05-22T05:31:15.601Z,45.00
2019-05-22T05:34:15.540Z,39.38
2019-05-22T05:37:15.475Z,39.38
2019-05-22T05:40:15.480Z,33.75
2019-05-22T05:43:15.420Z,39.38
2019-05-22T05:46:15.405Z,39.38
2019-05-22T05:49:15.369Z,45.00
2019-05-22T05:52:15.330Z,33.75
2019-05-22T05:55:15.280Z,39.38
2019-05-22T05:58:15.288Z,33.75
2019-05-22T06:01:15.231Z,33.75
2019-05-22T06:04:15.215Z,33.75
2019-05-22T06:07:15.156Z,45.00
2019-05-22T06:10:15.147Z,45.00
2019-05-22T06:13:15.097Z,50.62
2019-05-22T06:16:15.086Z,56.25
2019-05-22T06:19:15.019Z,45.00
2019-05-22T06:22:15.044Z,50.62
2019-05-22T06:25:14.993Z,56.25
2019-05-22T06:28:14.943Z,56.25
2019-05-22T06:31:14.895Z,56.25
2019-05-22T06:34:14.870Z,61.88
2019-05-22T06:37:14.875Z,67.50
2019-05-22T06:40:14.797Z,73.12
2019-05-22T06:43:14.774Z,73.12
2019-05-22T06:46:14.767Z,73.12
2019-05-22T06:49:14.715Z,73.12
2019-05-22T06:52:14.700Z,78.75
2019-05-22T06:55:14.671Z,101.25
2019-05-22T06:58:14.630Z,135.00
2019-05-22T07:01:14.609Z,135.00
2019-05-22T07:04:14.539Z,118.12
2019-05-22T07:07:14.549Z,123.75
2019-05-22T07:10:14.543Z,129.38
2019-05-22T07:13:14.459Z,112.50
2019-05-22T07:16:14.419Z,112.50
2019-05-22T07:19:14.412Z,129.38
2019-05-22T07:22:14.355Z,129.38
2019-05-22T07:25:14.402Z,140.62
2019-05-22T07:28:14.299Z,135.00
2019-05-22T07:31:14.244Z,112.50
2019-05-22T07:34:14.244Z,118.12
2019-05-22T07:37:14.195Z,129.38
2019-05-22T07:40:14.175Z,135.00
2019-05-22T07:43:14.189Z,106.88
2019-05-22T07:46:14.084Z,112.50
2019-05-22T07:49:14.073Z,118.12
2019-05-22T07:52:14.019Z,140.62
2019-05-22T07:55:13.998Z,118.12
2019-05-22T07:58:13.969Z,135.00
2019-05-22T08:01:14.325Z,135.00
2019-05-22T08:04:13.888Z,163.12
2019-05-22T08:07:13.874Z,129.38
2019-05-22T08:10:14.049Z,123.75
2019-05-22T08:13:13.815Z,112.50
2019-05-22T08:16:13.773Z,112.50
2019-05-22T08:19:13.751Z,112.50
2019-05-22T08:22:13.730Z,118.12
2019-05-22T08:25:13.663Z,135.00
2019-05-22T08:28:13.655Z,146.25
2019-05-22T08:31:13.610Z,196.88
2019-05-22T08:34:13.579Z,230.62
2019-05-22T08:37:13.543Z,275.62
2019-05-22T08:40:13.503Z,236.25
2019-05-22T08:43:13.482Z,225.00
2019-05-22T08:46:13.464Z,225.00
2019-05-22T08:49:13.409Z,219.38
2019-05-22T08:52:22.893Z,202.50
2019-05-22T08:55:14.374Z,180.00
2019-05-22T08:58:13.335Z,225.00
2019-05-22T09:01:13.275Z,230.62
2019-05-22T09:04:13.258Z,309.38
2019-05-22T09:07:13.261Z,331.88
2019-05-22T09:10:13.209Z,360.00
2019-05-22T09:13:13.156Z,410.62
2019-05-22T09:16:20.159Z,461.25
2019-05-22T09:19:13.578Z,472.50
2019-05-22T09:22:20.103Z,500.62
2019-05-22T09:25:13.568Z,663.75
2019-05-22T09:28:12.984Z,601.88
2019-05-22T09:31:13.423Z,596.25
2019-05-22T09:34:12.917Z,545.62
2019-05-22T09:37:12.904Z,540.00
2019-05-22T09:40:12.858Z,579.38
2019-05-22T09:43:12.842Z,506.25
2019-05-22T09:46:12.788Z,393.75
2019-05-22T09:49:12.768Z,286.88
2019-05-22T09:52:12.741Z,241.88
2019-05-22T09:55:12.706Z,230.62
2019-05-22T09:58:12.662Z,213.75
2019-05-22T10:01:12.663Z,303.75
2019-05-22T10:04:12.598Z,264.38
2019-05-22T10:07:12.594Z,241.88
2019-05-22T10:10:12.558Z,225.00
2019-05-22T10:13:12.521Z,286.88
2019-05-22T10:16:12.473Z,360.00
2019-05-22T10:19:12.439Z,483.75
2019-05-22T10:22:12.444Z,534.38
2019-05-22T10:25:19.414Z,607.50
2019-05-22T10:28:12.385Z,624.38
2019-05-22T10:31:14.954Z,365.62
2019-05-22T10:34:12.295Z,247.50
2019-05-22T10:37:12.277Z,241.88
2019-05-22T10:40:12.251Z,230.62
2019-05-22T10:43:12.178Z,258.75
2019-05-22T10:46:12.251Z,331.88
2019-05-22T10:49:12.145Z,399.38
2019-05-22T10:52:12.964Z,472.50
2019-05-22T10:55:12.043Z,478.12
2019-05-22T10:58:12.062Z,596.25
2019-05-22T11:01:19.032Z,646.88
2019-05-22T11:04:19.624Z,613.12
2019-05-22T11:07:18.994Z,630.00
2019-05-22T11:10:11.918Z,759.38
2019-05-22T11:13:11.906Z,495.00
2019-05-22T11:16:11.828Z,416.25
2019-05-22T11:19:11.820Z,523.12
2019-05-22T11:22:11.788Z,410.62
2019-05-22T11:25:11.757Z,596.25
2019-05-22T11:28:11.721Z,416.25
2019-05-22T11:31:11.744Z,472.50
2019-05-22T11:34:11.631Z,1878.75
2019-05-22T11:37:11.618Z,742.50
2019-05-22T11:40:11.590Z,652.50
2019-05-22T11:43:11.570Z,551.25
2019-05-22T11:46:11.498Z,523.12
2019-05-22T11:49:11.501Z,489.38
2019-05-22T11:52:11.472Z,725.62
2019-05-22T11:55:11.403Z,871.88
2019-05-22T11:58:11.434Z,714.38
2019-05-22T12:01:11.339Z,540.00
2019-05-22T12:04:11.442Z,500.62
2019-05-22T12:07:11.273Z,489.38
2019-05-22T12:10:11.277Z,607.50
2019-05-22T12:13:11.511Z,590.62
2019-05-22T12:16:11.209Z,1305.00
2019-05-22T12:19:11.176Z,1440.00
2019-05-22T12:22:11.113Z,753.75
2019-05-22T12:25:11.132Z,686.25
2019-05-22T12:28:11.051Z,663.75
2019-05-22T12:31:11.058Z,1428.75
2019-05-22T12:34:10.986Z,1305.00
2019-05-22T12:37:10.986Z,1040.62
2019-05-22T12:40:10.948Z,635.62
2019-05-22T12:43:10.928Z,2008.12
2019-05-22T12:46:10.857Z,781.88
2019-05-22T12:49:10.867Z,1260.00
2019-05-22T12:52:10.825Z,810.00
2019-05-22T12:55:10.799Z,1642.50
2019-05-22T12:58:10.768Z,607.50
2019-05-22T13:01:10.755Z,1513.12
2019-05-22T13:04:10.678Z,618.75
2019-05-22T13:07:10.678Z,1338.75
2019-05-22T13:10:10.612Z,1350.00
2019-05-22T13:13:10.667Z,1231.88
2019-05-22T13:16:10.584Z,545.62
2019-05-22T13:19:10.552Z,1051.88
2019-05-22T13:22:10.523Z,950.62
2019-05-22T13:25:10.463Z,590.62
2019-05-22T13:28:10.462Z,1215.00
2019-05-22T13:31:10.395Z,1243.12
2019-05-22T13:34:10.412Z,860.62
2019-05-22T13:37:10.339Z,455.62
2019-05-22T13:40:26.728Z,528.75
2019-05-22T13:43:11.270Z,1035.00
2019-05-22T13:46:10.276Z,793.12
2019-05-22T13:49:10.213Z,495.00
2019-05-22T13:52:10.212Z,360.00
2019-05-22T13:55:10.146Z,1299.38
2019-05-22T13:58:10.152Z,438.75
2019-05-22T14:01:10.086Z,1434.38
2019-05-22T14:04:10.086Z,1569.38
2019-05-22T14:07:10.044Z,1828.12
2019-05-22T14:10:10.000Z,1456.88
2019-05-22T14:13:09.991Z,1119.38
2019-05-22T14:16:09.924Z,956.25
2019-05-22T14:19:09.922Z,528.75
2019-05-22T14:22:09.869Z,495.00
2019-05-22T14:25:09.862Z,832.50
2019-05-22T14:28:09.808Z,365.62
2019-05-22T14:31:09.801Z,573.75
2019-05-22T14:34:09.775Z,399.38
2019-05-22T14:37:09.709Z,714.38
2019-05-22T14:40:09.709Z,596.25
2019-05-22T14:43:09.642Z,466.88
2019-05-22T14:46:09.642Z,506.25
2019-05-22T14:49:09.589Z,382.50
2019-05-22T14:52:09.574Z,360.00
2019-05-22T14:55:09.518Z,410.62
2019-05-22T14:58:09.525Z,675.00
2019-05-22T15:01:09.463Z,388.12
2019-05-22T15:04:09.456Z,258.75
2019-05-22T15:07:09.399Z,258.75
2019-05-22T15:10:09.404Z,641.25
2019-05-22T15:13:09.323Z,585.00
2019-05-22T15:16:09.347Z,545.62
2019-05-22T15:19:09.264Z,444.38
2019-05-22T15:22:09.313Z,568.12
2019-05-22T15:25:09.202Z,534.38
2019-05-22T15:28:09.221Z,540.00
2019-05-22T15:31:09.135Z,528.75
2019-05-22T15:34:09.135Z,270.00
2019-05-22T15:37:09.073Z,466.88
2019-05-22T15:40:09.076Z,236.25
2019-05-22T15:43:09.015Z,241.88
2019-05-22T15:46:09.015Z,236.25
2019-05-22T15:49:08.992Z,247.50
2019-05-22T15:52:08.918Z,551.25
2019-05-22T15:55:08.927Z,540.00
2019-05-22T15:58:08.879Z,556.88
2019-05-22T16:01:08.855Z,568.12
2019-05-22T16:04:15.831Z,500.62
2019-05-22T16:07:08.808Z,478.12
2019-05-22T16:10:08.730Z,450.00
2019-05-22T16:13:08.746Z,444.38
2019-05-22T16:16:08.668Z,427.50
2019-05-22T16:19:08.659Z,376.88
2019-05-22T16:22:08.636Z,360.00
2019-05-22T16:25:08.585Z,202.50
2019-05-22T16:28:08.597Z,196.88
2019-05-22T16:31:08.530Z,202.50
2019-05-22T16:34:08.499Z,191.25
2019-05-22T16:37:08.448Z,213.75
2019-05-22T16:40:08.427Z,213.75
2019-05-22T16:43:08.398Z,219.38
2019-05-22T16:46:08.347Z,292.50
2019-05-22T16:49:08.340Z,326.25
2019-05-22T16:52:08.319Z,219.38
2019-05-22T16:55:08.286Z,247.50
2019-05-22T16:58:08.215Z,230.62
2019-05-22T17:01:08.216Z,230.62
2019-05-22T17:04:08.183Z,247.50
2019-05-22T17:07:08.163Z,247.50
2019-05-22T17:10:08.090Z,247.50
2019-05-22T17:13:12.027Z,236.25
2019-05-22T17:16:08.032Z,219.38
2019-05-22T17:19:25.724Z,208.12
2019-05-22T17:22:08.967Z,202.50
2019-05-22T17:25:07.945Z,185.62
2019-05-22T17:28:07.917Z,163.12
2019-05-22T17:31:07.861Z,151.88
2019-05-22T17:34:07.871Z,140.62
2019-05-22T17:37:07.802Z,135.00
2019-05-22T17:40:07.814Z,129.38
2019-05-22T17:43:07.738Z,129.38
2019-05-22T17:46:07.733Z,123.75
2019-05-22T17:49:07.673Z,118.12
2019-05-22T17:52:07.668Z,118.12
2019-05-22T17:55:07.633Z,112.50
2019-05-22T17:58:07.573Z,106.88
2019-05-22T18:01:07.566Z,101.25
2019-05-22T18:04:07.516Z,90.00
2019-05-22T18:07:07.500Z,84.38
2019-05-22T18:10:07.451Z,84.38
2019-05-22T18:13:07.461Z,78.75
2019-05-22T18:16:07.385Z,73.12
2019-05-22T18:19:07.379Z,67.50
2019-05-22T18:22:07.353Z,67.50
2019-05-22T18:25:07.313Z,67.50
2019-05-22T18:28:07.284Z,61.88
2019-05-22T18:31:07.251Z,61.88
2019-05-22T18:34:07.191Z,61.88
2019-05-22T18:37:07.175Z,56.25
2019-05-22T18:40:07.138Z,50.62
2019-05-22T18:43:07.106Z,45.00
2019-05-22T18:46:07.070Z,45.00
2019-05-22T18:49:07.050Z,39.38
2019-05-22T18:52:07.001Z,39.38
2019-05-22T18:55:06.979Z,33.75
2019-05-22T18:58:06.930Z,28.12
2019-05-22T19:01:06.921Z,22.50
2019-05-22T19:04:06.876Z,22.50
2019-05-22T19:07:06.844Z,16.88
2019-05-22T19:10:06.810Z,11.25
2019-05-22T19:13:06.780Z,11.25
2019-05-22T19:16:06.735Z,5.62
2019-05-22T19:19:06.727Z,5.62
2019-05-22T19:22:06.698Z,5.62
2019-05-22T19:25:06.651Z,5.62
2019-05-22T19:28:06.613Z,0.00
2019-05-22T19:31:06.593Z,0.00
2019-05-22T19:34:06.548Z,0.00
2019-05-22T19:37:06.527Z,0.00
2019-05-22T19:40:06.489Z,0.00
2019-05-22T19:43:06.455Z,0.00
2019-05-22T19:46:06.427Z,0.00
2019-05-22T19:49:06.378Z,0.00
2019-05-22T19:52:06.358Z,0.00
2019-05-22T19:55:07.134Z,0.00
2019-05-22T19:58:06.299Z,0.00
2019-05-22T20:01:06.250Z,0.00
2019-05-22T20:04:06.235Z,0.00
2019-05-22T20:07:06.207Z,0.00
2019-05-22T20:10:06.153Z,0.00
2019-05-22T20:13:06.158Z,0.00
2019-05-22T20:16:06.097Z,0.00
2019-05-22T20:19:06.087Z,0.00
2019-05-22T20:22:06.024Z,0.00
2019-05-22T20:25:06.009Z,0.00
2019-05-22T20:28:06.005Z,0.00
2019-05-22T20:31:05.933Z,0.00
2019-05-22T20:34:05.919Z,0.00
2019-05-22T20:37:05.863Z,0.00
2019-05-22T20:40:05.885Z,0.00
2019-05-22T20:43:05.834Z,0.00
2019-05-22T20:46:05.769Z,0.00
2019-05-22T20:49:05.744Z,0.00
2019-05-22T20:52:05.709Z,0.00
2019-05-22T20:55:05.696Z,0.00
2019-05-22T20:58:05.664Z,0.00
2019-05-22T21:01:05.634Z,0.00
2019-05-22T21:04:05.583Z,0.00
2019-05-22T21:07:05.540Z,0.00
2019-05-22T21:10:05.531Z,0.00
2019-05-22T21:13:05.480Z,0.00
2019-05-22T21:16:05.474Z,0.00
2019-05-22T21:19:05.444Z,0.00
2019-05-22T21:22:05.383Z,0.00
2019-05-22T21:25:05.356Z,0.00
2019-05-22T21:28:05.311Z,0.00
2019-05-22T21:31:05.294Z,0.00
2019-05-22T21:34:05.265Z,0.00
2019-05-22T21:37:05.217Z,0.00
2019-05-22T21:40:05.250Z,0.00
2019-05-22T21:43:05.150Z,0.00
2019-05-22T21:46:05.155Z,0.00
2019-05-22T21:49:05.086Z,0.00
2019-05-22T21:52:05.082Z,0.00
2019-05-22T21:55:05.032Z,0.00
2019-05-22T21:58:05.417Z,0.00
2019-05-22T22:01:05.033Z,0.00
2019-05-22T22:04:04.987Z,0.00
2019-05-22T22:07:04.921Z,0.00
2019-05-22T22:10:04.859Z,0.00
2019-05-22T22:13:07.657Z,0.00
2019-05-22T22:16:04.795Z,0.00
2019-05-22T22:19:04.818Z,0.00
2019-05-22T22:22:04.730Z,0.00
2019-05-22T22:25:04.715Z,0.00
2019-05-22T22:28:04.690Z,0.00
2019-05-22T22:31:04.635Z,0.00
2019-05-22T22:34:04.626Z,0.00
2019-05-22T22:37:04.574Z,0.00
2019-05-22T22:40:04.645Z,0.00
2019-05-22T22:43:04.505Z,0.00
2019-05-22T22:46:04.500Z,0.00
2019-05-22T22:49:04.468Z,0.00
2019-05-22T22:52:04.437Z,0.00
2019-05-22T22:55:04.386Z,0.00
2019-05-22T22:58:16.814Z,0.00
2019-05-22T23:01:05.325Z,0.00
2019-05-22T23:04:04.302Z,0.00
2019-05-22T23:07:04.250Z,0.00
2019-05-22T23:10:04.229Z,0.00
2019-05-22T23:13:04.235Z,0.00
2019-05-22T23:16:04.149Z,0.00
2019-05-22T23:19:04.140Z,0.00
2019-05-22T23:22:04.114Z,0.00
2019-05-22T23:25:04.224Z,0.00
2019-05-22T23:28:04.046Z,0.00
2019-05-22T23:31:04.033Z,0.00
2019-05-22T23:34:03.972Z,0.00
2019-05-22T23:37:03.949Z,0.00
2019-05-22T23:40:03.892Z,0.00
2019-05-22T23:43:03.907Z,0.00
2019-05-22T23:46:03.831Z,0.00
2019-05-22T23:49:03.811Z,0.00
2019-05-22T23:52:03.800Z,0.00
2019-05-22T23:55:03.729Z,0.00
2019-05-22T23:58:03.709Z,0.00
